sensor_id;sensor_type;location;lat;lon;timestamp;pressure;altitude;pressure_sealevel;temperature;humidity
49709;BME280;35601;55.902;13.606;2023-04-27T00:01:13;100476.52;;;1.23;63.73
49709;BME280;35601;55.902;13.606;2023-04-27T00:03:41;100483.74;;;1.60;63.65
49709;BME280;35601;55.902;13.606;2023-04-27T00:06:05;100483.31;;;1.45;63.67
49709;BME280;35601;55.902;13.606;2023-04-27T00:08:29;100482.32;;;1.24;63.22
49709;BME280;35601;55.902;13.606;2023-04-27T00:10:55;100485.15;;;1.29;62.73
49709;BME280;35601;55.902;13.606;2023-04-27T00:13:19;100487.44;;;1.47;62.86
49709;BME280;35601;55.902;13.606;2023-04-27T00:15:46;100487.45;;;1.37;63.26
49709;BME280;35601;55.902;13.606;2023-04-27T00:18:10;100492.97;;;1.07;63.40
49709;BME280;35601;55.902;13.606;2023-04-27T00:20:35;100490.04;;;1.16;63.44
49709;BME280;35601;55.902;13.606;2023-04-27T00:23:02;100491.99;;;1.38;63.93
49709;BME280;35601;55.902;13.606;2023-04-27T00:25:27;100490.82;;;1.26;64.46
49709;BME280;35601;55.902;13.606;2023-04-27T00:27:51;100491.02;;;1.04;64.46
49709;BME280;35601;55.902;13.606;2023-04-27T00:30:17;100492.37;;;0.34;65.17
49709;BME280;35601;55.902;13.606;2023-04-27T00:32:42;100488.74;;;1.19;64.32
49709;BME280;35601;55.902;13.606;2023-04-27T00:35:09;100492.75;;;1.46;64.12
49709;BME280;35601;55.902;13.606;2023-04-27T00:37:33;100486.12;;;0.92;64.28
49709;BME280;35601;55.902;13.606;2023-04-27T00:39:58;100490.97;;;1.13;64.27
49709;BME280;35601;55.902;13.606;2023-04-27T00:42:24;100494.90;;;1.16;65.20
49709;BME280;35601;55.902;13.606;2023-04-27T00:44:50;100492.50;;;1.23;65.35
49709;BME280;35601;55.902;13.606;2023-04-27T00:47:15;100496.88;;;1.53;65.11
49709;BME280;35601;55.902;13.606;2023-04-27T00:49:41;100495.88;;;1.35;65.24
49709;BME280;35601;55.902;13.606;2023-04-27T00:52:06;100498.43;;;0.93;64.79
49709;BME280;35601;55.902;13.606;2023-04-27T00:54:30;100498.73;;;1.06;64.56
49709;BME280;35601;55.902;13.606;2023-04-27T00:56:56;100503.75;;;1.41;65.01
49709;BME280;35601;55.902;13.606;2023-04-27T00:59:21;100501.81;;;1.33;65.45
49709;BME280;35601;55.902;13.606;2023-04-27T01:01:47;100501.27;;;1.32;65.65
49709;BME280;35601;55.902;13.606;2023-04-27T01:04:12;100505.00;;;1.39;65.17
49709;BME280;35601;55.902;13.606;2023-04-27T01:06:37;100505.06;;;0.91;65.42
49709;BME280;35601;55.902;13.606;2023-04-27T01:09:03;100503.77;;;1.13;65.35
49709;BME280;35601;55.902;13.606;2023-04-27T01:11:30;100502.17;;;1.10;65.09
49709;BME280;35601;55.902;13.606;2023-04-27T01:13:55;100502.42;;;1.28;65.14
49709;BME280;35601;55.902;13.606;2023-04-27T01:16:19;100502.21;;;1.27;65.43
49709;BME280;35601;55.902;13.606;2023-04-27T01:18:44;100504.58;;;1.03;65.27
49709;BME280;35601;55.902;13.606;2023-04-27T01:21:11;100503.57;;;1.14;65.32
49709;BME280;35601;55.902;13.606;2023-04-27T01:23:37;100505.92;;;1.16;65.63
49709;BME280;35601;55.902;13.606;2023-04-27T01:26:00;100504.34;;;0.97;65.28
49709;BME280;35601;55.902;13.606;2023-04-27T01:28:25;100502.64;;;1.02;64.79
49709;BME280;35601;55.902;13.606;2023-04-27T01:30:51;100503.34;;;1.17;65.61
49709;BME280;35601;55.902;13.606;2023-04-27T01:33:17;100503.50;;;1.17;65.45
49709;BME280;35601;55.902;13.606;2023-04-27T01:35:41;100507.48;;;1.16;65.96
49709;BME280;35601;55.902;13.606;2023-04-27T01:38:07;100508.40;;;1.14;65.76
49709;BME280;35601;55.902;13.606;2023-04-27T01:40:32;100508.91;;;1.21;65.55
49709;BME280;35601;55.902;13.606;2023-04-27T01:42:59;100511.68;;;0.68;65.80
49709;BME280;35601;55.902;13.606;2023-04-27T01:45:24;100513.18;;;1.04;66.18
49709;BME280;35601;55.902;13.606;2023-04-27T01:47:50;100510.39;;;0.90;65.63
49709;BME280;35601;55.902;13.606;2023-04-27T01:50:14;100510.64;;;0.84;65.96
49709;BME280;35601;55.902;13.606;2023-04-27T01:52:39;100507.63;;;0.60;65.88
49709;BME280;35601;55.902;13.606;2023-04-27T01:55:05;100505.17;;;1.04;65.94
49709;BME280;35601;55.902;13.606;2023-04-27T01:57:30;100507.67;;;0.74;66.32
49709;BME280;35601;55.902;13.606;2023-04-27T01:59:55;100508.45;;;0.93;66.06
49709;BME280;35601;55.902;13.606;2023-04-27T02:02:20;100509.31;;;0.69;65.94
49709;BME280;35601;55.902;13.606;2023-04-27T02:04:45;100510.75;;;0.96;65.65
49709;BME280;35601;55.902;13.606;2023-04-27T02:07:11;100515.68;;;0.85;65.53
49709;BME280;35601;55.902;13.606;2023-04-27T02:09:36;100516.03;;;0.92;65.30
49709;BME280;35601;55.902;13.606;2023-04-27T02:12:01;100516.59;;;0.86;65.20
49709;BME280;35601;55.902;13.606;2023-04-27T02:14:27;100517.97;;;0.77;64.98
49709;BME280;35601;55.902;13.606;2023-04-27T02:16:52;100515.48;;;0.82;64.94
49709;BME280;35601;55.902;13.606;2023-04-27T02:19:17;100519.46;;;1.05;64.98
49709;BME280;35601;55.902;13.606;2023-04-27T02:21:42;100518.30;;;0.76;65.03
49709;BME280;35601;55.902;13.606;2023-04-27T02:24:09;100520.01;;;0.78;65.26
49709;BME280;35601;55.902;13.606;2023-04-27T02:26:33;100519.11;;;0.51;65.04
49709;BME280;35601;55.902;13.606;2023-04-27T02:28:58;100522.18;;;0.72;65.34
49709;BME280;35601;55.902;13.606;2023-04-27T02:31:24;100522.84;;;0.83;65.13
49709;BME280;35601;55.902;13.606;2023-04-27T02:33:49;100524.71;;;0.86;64.46
49709;BME280;35601;55.902;13.606;2023-04-27T02:36:14;100521.40;;;0.80;64.99
49709;BME280;35601;55.902;13.606;2023-04-27T02:38:40;100521.59;;;0.72;65.27
49709;BME280;35601;55.902;13.606;2023-04-27T02:41:05;100525.61;;;0.75;65.30
49709;BME280;35601;55.902;13.606;2023-04-27T02:43:31;100527.19;;;0.56;65.54
49709;BME280;35601;55.902;13.606;2023-04-27T02:45:56;100526.09;;;0.62;65.31
49709;BME280;35601;55.902;13.606;2023-04-27T02:48:23;100521.76;;;0.69;65.55
49709;BME280;35601;55.902;13.606;2023-04-27T02:50:47;100526.29;;;0.65;65.59
49709;BME280;35601;55.902;13.606;2023-04-27T02:53:12;100526.53;;;0.75;65.13
49709;BME280;35601;55.902;13.606;2023-04-27T02:55:37;100530.19;;;0.86;64.73
49709;BME280;35601;55.902;13.606;2023-04-27T02:58:02;100526.61;;;0.71;64.46
49709;BME280;35601;55.902;13.606;2023-04-27T03:00:29;100529.84;;;0.82;63.87
49709;BME280;35601;55.902;13.606;2023-04-27T03:02:54;100526.99;;;0.94;63.70
49709;BME280;35601;55.902;13.606;2023-04-27T03:05:19;100529.51;;;0.95;63.60
49709;BME280;35601;55.902;13.606;2023-04-27T03:07:44;100527.59;;;0.91;64.10
49709;BME280;35601;55.902;13.606;2023-04-27T03:10:09;100526.64;;;0.62;64.40
49709;BME280;35601;55.902;13.606;2023-04-27T03:12:35;100527.51;;;0.85;64.61
49709;BME280;35601;55.902;13.606;2023-04-27T03:15:02;100528.84;;;0.74;65.08
49709;BME280;35601;55.902;13.606;2023-04-27T03:17:25;100529.01;;;0.72;65.03
49709;BME280;35601;55.902;13.606;2023-04-27T03:19:51;100529.68;;;0.80;64.91
49709;BME280;35601;55.902;13.606;2023-04-27T03:22:16;100529.78;;;0.57;65.48
49709;BME280;35601;55.902;13.606;2023-04-27T03:24:41;100531.12;;;0.35;65.60
49709;BME280;35601;55.902;13.606;2023-04-27T03:27:07;100531.25;;;0.76;66.34
49709;BME280;35601;55.902;13.606;2023-04-27T03:29:32;100530.10;;;0.82;66.39
49709;BME280;35601;55.902;13.606;2023-04-27T03:31:57;100529.53;;;0.75;66.58
49709;BME280;35601;55.902;13.606;2023-04-27T03:34:23;100529.13;;;0.68;66.80
49709;BME280;35601;55.902;13.606;2023-04-27T03:36:48;100532.95;;;0.53;67.12
49709;BME280;35601;55.902;13.606;2023-04-27T03:39:13;100534.22;;;0.81;67.34
49709;BME280;35601;55.902;13.606;2023-04-27T03:41:39;100531.69;;;0.81;67.26
49709;BME280;35601;55.902;13.606;2023-04-27T03:44:06;100533.95;;;0.59;67.28
49709;BME280;35601;55.902;13.606;2023-04-27T03:46:29;100533.47;;;0.56;67.15
49709;BME280;35601;55.902;13.606;2023-04-27T03:48:56;100531.93;;;0.52;67.19
49709;BME280;35601;55.902;13.606;2023-04-27T03:51:20;100531.86;;;0.39;67.53
49709;BME280;35601;55.902;13.606;2023-04-27T03:53:45;100532.35;;;0.37;67.73
49709;BME280;35601;55.902;13.606;2023-04-27T03:56:10;100534.93;;;0.36;68.12
49709;BME280;35601;55.902;13.606;2023-04-27T03:58:35;100534.25;;;0.47;67.68
49709;BME280;35601;55.902;13.606;2023-04-27T04:01:02;100532.80;;;0.31;68.69
49709;BME280;35601;55.902;13.606;2023-04-27T04:03:26;100533.13;;;0.29;69.61
49709;BME280;35601;55.902;13.606;2023-04-27T04:05:53;100534.20;;;0.54;69.79
49709;BME280;35601;55.902;13.606;2023-04-27T04:08:17;100533.92;;;0.32;70.45
49709;BME280;35601;55.902;13.606;2023-04-27T04:10:42;100533.87;;;0.56;70.71
49709;BME280;35601;55.902;13.606;2023-04-27T04:13:07;100536.03;;;0.28;71.05
49709;BME280;35601;55.902;13.606;2023-04-27T04:15:33;100538.70;;;0.57;71.39
49709;BME280;35601;55.902;13.606;2023-04-27T04:17:58;100542.73;;;0.37;72.48
49709;BME280;35601;55.902;13.606;2023-04-27T04:20:23;100542.25;;;0.81;72.51
49709;BME280;35601;55.902;13.606;2023-04-27T04:22:48;100546.34;;;0.47;72.49
49709;BME280;35601;55.902;13.606;2023-04-27T04:25:14;100542.69;;;0.48;72.91
49709;BME280;35601;55.902;13.606;2023-04-27T04:27:39;100540.98;;;0.69;72.79
49709;BME280;35601;55.902;13.606;2023-04-27T04:30:06;100537.79;;;0.55;73.45
49709;BME280;35601;55.902;13.606;2023-04-27T04:32:32;100539.79;;;0.45;72.89
49709;BME280;35601;55.902;13.606;2023-04-27T04:34:56;100540.10;;;0.56;73.48
49709;BME280;35601;55.902;13.606;2023-04-27T04:37:21;100540.24;;;0.87;73.39
49709;BME280;35601;55.902;13.606;2023-04-27T04:39:46;100546.24;;;1.09;73.18
49709;BME280;35601;55.902;13.606;2023-04-27T04:42:11;100550.47;;;0.94;72.69
49709;BME280;35601;55.902;13.606;2023-04-27T04:44:37;100545.88;;;1.25;71.95
49709;BME280;35601;55.902;13.606;2023-04-27T04:47:02;100546.82;;;1.31;71.46
49709;BME280;35601;55.902;13.606;2023-04-27T04:49:28;100548.89;;;1.58;70.67
49709;BME280;35601;55.902;13.606;2023-04-27T04:51:53;100552.17;;;1.59;70.87
49709;BME280;35601;55.902;13.606;2023-04-27T04:54:19;100554.26;;;1.80;70.18
49709;BME280;35601;55.902;13.606;2023-04-27T04:56:44;100548.94;;;1.89;70.49
49709;BME280;35601;55.902;13.606;2023-04-27T04:59:09;100544.95;;;2.33;70.21
49709;BME280;35601;55.902;13.606;2023-04-27T05:01:34;100548.15;;;1.97;69.09
49709;BME280;35601;55.902;13.606;2023-04-27T05:04:00;100545.22;;;2.31;67.78
49709;BME280;35601;55.902;13.606;2023-04-27T05:06:25;100541.48;;;2.61;67.17
49709;BME280;35601;55.902;13.606;2023-04-27T05:08:50;100540.79;;;2.66;66.72
49709;BME280;35601;55.902;13.606;2023-04-27T05:11:17;100540.74;;;2.78;65.56
49709;BME280;35601;55.902;13.606;2023-04-27T05:13:41;100541.77;;;2.36;65.41
49709;BME280;35601;55.902;13.606;2023-04-27T05:16:07;100539.65;;;3.04;65.18
49709;BME280;35601;55.902;13.606;2023-04-27T05:18:32;100535.99;;;2.67;64.77
49709;BME280;35601;55.902;13.606;2023-04-27T05:20:57;100544.35;;;2.78;64.61
49709;BME280;35601;55.902;13.606;2023-04-27T05:23:22;100537.94;;;3.08;64.58
49709;BME280;35601;55.902;13.606;2023-04-27T05:25:48;100543.69;;;3.27;64.71
49709;BME280;35601;55.902;13.606;2023-04-27T05:28:13;100540.87;;;3.03;63.93
49709;BME280;35601;55.902;13.606;2023-04-27T05:30:38;100541.91;;;3.13;64.08
49709;BME280;35601;55.902;13.606;2023-04-27T05:33:04;100543.72;;;3.09;63.16
49709;BME280;35601;55.902;13.606;2023-04-27T05:35:29;100551.48;;;2.99;63.24
49709;BME280;35601;55.902;13.606;2023-04-27T05:37:55;100552.61;;;2.90;63.69
49709;BME280;35601;55.902;13.606;2023-04-27T05:40:20;100552.91;;;2.68;64.69
49709;BME280;35601;55.902;13.606;2023-04-27T05:42:46;100544.25;;;2.66;64.86
49709;BME280;35601;55.902;13.606;2023-04-27T05:45:11;100555.80;;;2.76;65.14
49709;BME280;35601;55.902;13.606;2023-04-27T05:47:36;100554.52;;;2.86;66.55
49709;BME280;35601;55.902;13.606;2023-04-27T05:50:03;100557.72;;;2.67;66.13
49709;BME280;35601;55.902;13.606;2023-04-27T05:52:27;100556.41;;;2.93;65.25
49709;BME280;35601;55.902;13.606;2023-04-27T05:54:52;100556.01;;;2.83;64.82
49709;BME280;35601;55.902;13.606;2023-04-27T05:57:18;100557.96;;;2.93;65.04
49709;BME280;35601;55.902;13.606;2023-04-27T05:59:43;100559.23;;;2.78;65.08
49709;BME280;35601;55.902;13.606;2023-04-27T06:02:09;100560.45;;;2.92;64.72
49709;BME280;35601;55.902;13.606;2023-04-27T06:04:34;100561.63;;;2.81;65.53
49709;BME280;35601;55.902;13.606;2023-04-27T06:07:00;100563.19;;;2.43;65.61
49709;BME280;35601;55.902;13.606;2023-04-27T06:09:28;100565.10;;;2.27;66.45
49709;BME280;35601;55.902;13.606;2023-04-27T06:11:52;100563.16;;;2.84;64.87
49709;BME280;35601;55.902;13.606;2023-04-27T06:14:17;100563.07;;;2.49;67.07
49709;BME280;35601;55.902;13.606;2023-04-27T06:16:42;100563.87;;;2.57;65.45
49709;BME280;35601;55.902;13.606;2023-04-27T06:19:08;100570.34;;;2.63;64.48
49709;BME280;35601;55.902;13.606;2023-04-27T06:21:33;100566.24;;;2.74;62.69
49709;BME280;35601;55.902;13.606;2023-04-27T06:23:58;100569.07;;;2.67;62.71
49709;BME280;35601;55.902;13.606;2023-04-27T06:26:24;100563.79;;;2.66;63.28
49709;BME280;35601;55.902;13.606;2023-04-27T06:28:49;100558.95;;;3.09;61.90
49709;BME280;35601;55.902;13.606;2023-04-27T06:31:15;100563.17;;;3.06;61.36
49709;BME280;35601;55.902;13.606;2023-04-27T06:33:39;100563.50;;;3.46;60.78
49709;BME280;35601;55.902;13.606;2023-04-27T06:36:05;100565.86;;;3.39;58.72
49709;BME280;35601;55.902;13.606;2023-04-27T06:38:30;100556.95;;;3.84;58.55
49709;BME280;35601;55.902;13.606;2023-04-27T06:40:55;100555.31;;;3.96;58.85
49709;BME280;35601;55.902;13.606;2023-04-27T06:43:22;100556.35;;;4.12;57.04
49709;BME280;35601;55.902;13.606;2023-04-27T06:45:46;100557.50;;;4.42;56.37
49709;BME280;35601;55.902;13.606;2023-04-27T06:48:13;100562.13;;;3.75;56.30
49709;BME280;35601;55.902;13.606;2023-04-27T06:50:37;100562.43;;;4.10;56.35
49709;BME280;35601;55.902;13.606;2023-04-27T06:53:02;100563.09;;;3.86;55.03
49709;BME280;35601;55.902;13.606;2023-04-27T06:55:27;100572.13;;;3.78;56.12
49709;BME280;35601;55.902;13.606;2023-04-27T06:57:53;100579.27;;;3.66;56.02
49709;BME280;35601;55.902;13.606;2023-04-27T07:00:19;100568.49;;;3.03;56.54
49709;BME280;35601;55.902;13.606;2023-04-27T07:02:43;100567.00;;;3.74;55.35
49709;BME280;35601;55.902;13.606;2023-04-27T07:05:09;100569.96;;;4.21;54.42
49709;BME280;35601;55.902;13.606;2023-04-27T07:07:34;100572.39;;;4.26;52.22
49709;BME280;35601;55.902;13.606;2023-04-27T07:10:01;100564.33;;;4.53;52.71
49709;BME280;35601;55.902;13.606;2023-04-27T07:12:26;100572.10;;;4.30;51.12
49709;BME280;35601;55.902;13.606;2023-04-27T07:14:50;100575.69;;;3.97;49.67
49709;BME280;35601;55.902;13.606;2023-04-27T07:17:15;100576.43;;;3.90;51.02
49709;BME280;35601;55.902;13.606;2023-04-27T07:19:41;100574.73;;;4.34;50.52
49709;BME280;35601;55.902;13.606;2023-04-27T07:22:06;100573.46;;;4.53;49.46
49709;BME280;35601;55.902;13.606;2023-04-27T07:24:31;100572.09;;;4.88;50.29
49709;BME280;35601;55.902;13.606;2023-04-27T07:26:56;100574.88;;;5.19;48.48
49709;BME280;35601;55.902;13.606;2023-04-27T07:29:22;100571.49;;;5.06;46.12
49709;BME280;35601;55.902;13.606;2023-04-27T07:31:49;100571.23;;;4.83;46.97
49709;BME280;35601;55.902;13.606;2023-04-27T07:34:12;100567.81;;;4.92;48.15
49709;BME280;35601;55.902;13.606;2023-04-27T07:36:38;100577.21;;;5.29;46.60
49709;BME280;35601;55.902;13.606;2023-04-27T07:39:03;100585.73;;;5.63;45.81
49709;BME280;35601;55.902;13.606;2023-04-27T07:41:28;100583.05;;;6.22;44.53
49709;BME280;35601;55.902;13.606;2023-04-27T07:43:54;100586.85;;;6.04;43.31
49709;BME280;35601;55.902;13.606;2023-04-27T07:46:19;100580.16;;;5.95;42.68
49709;BME280;35601;55.902;13.606;2023-04-27T07:48:45;100587.33;;;5.97;47.23
49709;BME280;35601;55.902;13.606;2023-04-27T07:51:10;100592.52;;;6.25;43.84
49709;BME280;35601;55.902;13.606;2023-04-27T07:53:36;100594.63;;;5.82;46.15
49709;BME280;35601;55.902;13.606;2023-04-27T07:56:01;100596.65;;;5.90;45.35
49709;BME280;35601;55.902;13.606;2023-04-27T07:58:27;100599.77;;;5.55;44.82
49709;BME280;35601;55.902;13.606;2023-04-27T08:00:53;100602.24;;;6.01;44.97
49709;BME280;35601;55.902;13.606;2023-04-27T08:03:17;100601.82;;;5.59;45.02
49709;BME280;35601;55.902;13.606;2023-04-27T08:05:44;100601.85;;;6.05;47.96
49709;BME280;35601;55.902;13.606;2023-04-27T08:08:08;100604.39;;;5.71;48.67
49709;BME280;35601;55.902;13.606;2023-04-27T08:10:34;100609.13;;;5.27;48.93
49709;BME280;35601;55.902;13.606;2023-04-27T08:12:59;100613.15;;;5.33;50.29
49709;BME280;35601;55.902;13.606;2023-04-27T08:15:24;100613.34;;;5.28;49.71
49709;BME280;35601;55.902;13.606;2023-04-27T08:17:49;100619.02;;;5.64;51.45
49709;BME280;35601;55.902;13.606;2023-04-27T08:20:14;100619.80;;;5.93;50.19
49709;BME280;35601;55.902;13.606;2023-04-27T08:22:41;100630.59;;;5.78;49.66
49709;BME280;35601;55.902;13.606;2023-04-27T08:25:06;100652.94;;;5.42;52.70
49709;BME280;35601;55.902;13.606;2023-04-27T08:27:31;100654.97;;;4.80;56.13
49709;BME280;35601;55.902;13.606;2023-04-27T08:29:56;100653.31;;;4.77;56.73
49709;BME280;35601;55.902;13.606;2023-04-27T08:32:21;100648.15;;;4.50;56.40
49709;BME280;35601;55.902;13.606;2023-04-27T08:34:47;100643.87;;;4.04;58.59
49709;BME280;35601;55.902;13.606;2023-04-27T08:37:13;100642.36;;;3.85;59.45
49709;BME280;35601;55.902;13.606;2023-04-27T08:39:38;100642.35;;;3.91;60.60
49709;BME280;35601;55.902;13.606;2023-04-27T08:42:10;100644.94;;;3.86;59.78
49709;BME280;35601;55.902;13.606;2023-04-27T08:44:31;100645.31;;;4.11;61.53
49709;BME280;35601;55.902;13.606;2023-04-27T08:46:54;100643.36;;;4.40;59.99
49709;BME280;35601;55.902;13.606;2023-04-27T08:49:20;100639.63;;;4.07;59.35
49709;BME280;35601;55.902;13.606;2023-04-27T08:51:46;100642.58;;;4.17;61.18
49709;BME280;35601;55.902;13.606;2023-04-27T08:54:10;100639.03;;;4.87;60.69
49709;BME280;35601;55.902;13.606;2023-04-27T08:56:35;100632.86;;;5.48;60.55
49709;BME280;35601;55.902;13.606;2023-04-27T08:59:01;100629.32;;;5.54;54.00
49709;BME280;35601;55.902;13.606;2023-04-27T09:01:26;100632.26;;;5.57;53.41
49709;BME280;35601;55.902;13.606;2023-04-27T09:03:56;100634.28;;;5.49;52.05
49709;BME280;35601;55.902;13.606;2023-04-27T09:06:28;100631.98;;;5.28;51.33
49709;BME280;35601;55.902;13.606;2023-04-27T09:08:44;100631.56;;;5.18;52.19
49709;BME280;35601;55.902;13.606;2023-04-27T09:11:07;100629.92;;;5.23;52.67
49709;BME280;35601;55.902;13.606;2023-04-27T09:13:34;100624.46;;;4.94;49.80
49709;BME280;35601;55.902;13.606;2023-04-27T09:15:58;100626.75;;;4.99;50.18
49709;BME280;35601;55.902;13.606;2023-04-27T09:18:23;100625.45;;;5.71;51.82
49709;BME280;35601;55.902;13.606;2023-04-27T09:20:49;100631.06;;;5.83;49.49
49709;BME280;35601;55.902;13.606;2023-04-27T09:23:25;100630.96;;;5.75;47.79
49709;BME280;35601;55.902;13.606;2023-04-27T09:25:41;100634.91;;;5.71;49.86
49709;BME280;35601;55.902;13.606;2023-04-27T09:28:07;100646.07;;;5.19;54.13
49709;BME280;35601;55.902;13.606;2023-04-27T09:30:29;100647.62;;;4.93;55.00
49709;BME280;35601;55.902;13.606;2023-04-27T09:32:57;100650.01;;;4.87;56.32
49709;BME280;35601;55.902;13.606;2023-04-27T09:35:22;100648.50;;;5.30;57.85
49709;BME280;35601;55.902;13.606;2023-04-27T09:37:47;100642.61;;;5.57;57.75
49709;BME280;35601;55.902;13.606;2023-04-27T09:40:12;100642.44;;;5.99;56.62
49709;BME280;35601;55.902;13.606;2023-04-27T09:42:37;100643.10;;;6.57;56.17
49709;BME280;35601;55.902;13.606;2023-04-27T09:45:01;100634.70;;;6.79;52.41
49709;BME280;35601;55.902;13.606;2023-04-27T09:47:26;100632.18;;;7.21;49.71
49709;BME280;35601;55.902;13.606;2023-04-27T09:49:53;100629.98;;;7.49;49.91
49709;BME280;35601;55.902;13.606;2023-04-27T09:52:18;100627.17;;;7.27;50.01
49709;BME280;35601;55.902;13.606;2023-04-27T09:54:45;100629.71;;;7.77;49.57
49709;BME280;35601;55.902;13.606;2023-04-27T09:57:16;100622.06;;;7.73;45.67
49709;BME280;35601;55.902;13.606;2023-04-27T10:01:59;100619.28;;;8.39;45.23
49709;BME280;35601;55.902;13.606;2023-04-27T10:04:38;100622.35;;;8.73;44.35
49709;BME280;35601;55.902;13.606;2023-04-27T10:06:58;100624.85;;;8.17;40.34
49709;BME280;35601;55.902;13.606;2023-04-27T10:09:14;100620.53;;;8.68;40.07
49709;BME280;35601;55.902;13.606;2023-04-27T10:11:42;100612.07;;;8.99;42.30
49709;BME280;35601;55.902;13.606;2023-04-27T10:14:06;100609.27;;;9.35;39.23
49709;BME280;35601;55.902;13.606;2023-04-27T10:16:39;100608.15;;;8.81;37.74
49709;BME280;35601;55.902;13.606;2023-04-27T10:18:55;100609.19;;;8.31;38.26
49709;BME280;35601;55.902;13.606;2023-04-27T10:21:20;100609.76;;;8.23;41.59
49709;BME280;35601;55.902;13.606;2023-04-27T10:23:47;100618.52;;;7.87;39.88
49709;BME280;35601;55.902;13.606;2023-04-27T10:26:10;100613.86;;;8.03;40.14
49709;BME280;35601;55.902;13.606;2023-04-27T10:28:37;100614.81;;;8.30;39.80
49709;BME280;35601;55.902;13.606;2023-04-27T10:31:10;100618.62;;;7.96;39.58
49709;BME280;35601;55.902;13.606;2023-04-27T10:33:26;100630.15;;;7.90;40.27
49709;BME280;35601;55.902;13.606;2023-04-27T10:35:54;100623.96;;;8.17;39.56
49709;BME280;35601;55.902;13.606;2023-04-27T10:38:18;100621.63;;;7.56;40.47
49709;BME280;35601;55.902;13.606;2023-04-27T10:40:44;100631.95;;;7.15;41.41
49709;BME280;35601;55.902;13.606;2023-04-27T10:43:08;100629.42;;;7.15;43.09
49709;BME280;35601;55.902;13.606;2023-04-27T10:45:33;100628.19;;;7.41;41.35
49709;BME280;35601;55.902;13.606;2023-04-27T10:48:00;100643.38;;;6.55;41.13
49709;BME280;35601;55.902;13.606;2023-04-27T10:50:24;100637.76;;;6.71;41.69
49709;BME280;35601;55.902;13.606;2023-04-27T10:52:49;100645.08;;;6.72;40.82
49709;BME280;35601;55.902;13.606;2023-04-27T10:55:17;100645.61;;;6.70;39.95
49709;BME280;35601;55.902;13.606;2023-04-27T10:57:47;100632.72;;;6.90;39.63
49709;BME280;35601;55.902;13.606;2023-04-27T11:00:05;100633.21;;;7.22;38.95
49709;BME280;35601;55.902;13.606;2023-04-27T11:02:29;100633.39;;;6.92;38.47
49709;BME280;35601;55.902;13.606;2023-04-27T11:04:55;100644.31;;;7.35;38.38
49709;BME280;35601;55.902;13.606;2023-04-27T11:07:25;100641.67;;;7.29;37.75
49709;BME280;35601;55.902;13.606;2023-04-27T11:09:47;100646.79;;;6.66;38.48
49709;BME280;35601;55.902;13.606;2023-04-27T11:12:11;100648.25;;;6.73;39.69
49709;BME280;35601;55.902;13.606;2023-04-27T11:14:35;100644.13;;;6.50;38.84
49709;BME280;35601;55.902;13.606;2023-04-27T11:17:01;100634.47;;;6.73;39.46
49709;BME280;35601;55.902;13.606;2023-04-27T11:19:26;100634.96;;;6.82;40.63
49709;BME280;35601;55.902;13.606;2023-04-27T11:21:51;100634.15;;;7.33;39.13
49709;BME280;35601;55.902;13.606;2023-04-27T11:24:16;100635.79;;;7.35;40.11
49709;BME280;35601;55.902;13.606;2023-04-27T11:26:43;100638.45;;;7.08;40.14
49709;BME280;35601;55.902;13.606;2023-04-27T11:29:08;100636.50;;;7.31;40.51
49709;BME280;35601;55.902;13.606;2023-04-27T11:31:40;100631.13;;;7.39;41.05
49709;BME280;35601;55.902;13.606;2023-04-27T11:33:58;100631.94;;;7.81;41.87
49709;BME280;35601;55.902;13.606;2023-04-27T11:36:23;100631.51;;;8.27;42.65
49709;BME280;35601;55.902;13.606;2023-04-27T11:38:49;100632.55;;;8.70;38.92
49709;BME280;35601;55.902;13.606;2023-04-27T11:41:13;100636.39;;;8.59;37.19
49709;BME280;35601;55.902;13.606;2023-04-27T11:43:40;100649.48;;;8.10;37.54
49709;BME280;35601;55.902;13.606;2023-04-27T11:46:04;100660.32;;;7.93;38.34
49709;BME280;35601;55.902;13.606;2023-04-27T11:48:30;100655.52;;;7.65;38.52
49709;BME280;35601;55.902;13.606;2023-04-27T11:50:56;100669.49;;;7.63;38.86
49709;BME280;35601;55.902;13.606;2023-04-27T11:53:29;100678.36;;;7.01;41.10
49709;BME280;35601;55.902;13.606;2023-04-27T11:55:50;100681.82;;;6.97;45.28
49709;BME280;35601;55.902;13.606;2023-04-27T11:58:14;100677.73;;;6.43;46.66
49709;BME280;35601;55.902;13.606;2023-04-27T12:00:35;100678.49;;;6.13;48.72
49709;BME280;35601;55.902;13.606;2023-04-27T12:03:02;100676.15;;;6.27;51.63
49709;BME280;35601;55.902;13.606;2023-04-27T12:05:26;100676.47;;;6.70;51.96
49709;BME280;35601;55.902;13.606;2023-04-27T12:07:51;100670.22;;;6.70;50.06
49709;BME280;35601;55.902;13.606;2023-04-27T12:10:18;100666.36;;;6.82;50.22
49709;BME280;35601;55.902;13.606;2023-04-27T12:12:43;100658.54;;;6.92;49.16
49709;BME280;35601;55.902;13.606;2023-04-27T12:15:08;100664.32;;;7.52;47.28
49709;BME280;35601;55.902;13.606;2023-04-27T12:17:32;100663.52;;;7.62;43.90
49709;BME280;35601;55.902;13.606;2023-04-27T12:19:58;100666.57;;;7.82;43.49
49709;BME280;35601;55.902;13.606;2023-04-27T12:22:23;100678.59;;;7.95;42.35
49709;BME280;35601;55.902;13.606;2023-04-27T12:24:49;100689.24;;;7.71;42.13
49709;BME280;35601;55.902;13.606;2023-04-27T12:27:14;100714.48;;;6.71;47.45
49709;BME280;35601;55.902;13.606;2023-04-27T12:29:39;100727.31;;;5.06;51.53
49709;BME280;35601;55.902;13.606;2023-04-27T12:32:04;100705.38;;;4.91;51.31
49709;BME280;35601;55.902;13.606;2023-04-27T12:34:29;100707.08;;;5.23;54.60
49709;BME280;35601;55.902;13.606;2023-04-27T12:36:54;100699.30;;;5.30;53.83
49709;BME280;35601;55.902;13.606;2023-04-27T12:39:21;100694.38;;;5.50;57.42
49709;BME280;35601;55.902;13.606;2023-04-27T12:41:47;100698.86;;;5.65;56.40